Time;durP1;ratioP1;P1;durP2;ratioP2;P2;SDS_P1;SDS_P2;PMS_P1;PMS_P2;Temp;Humidity;BMP_temperature;BMP_pressure;BME280_temperature;BME280_humidity;BME280_pressure;Samples;Min_cycle;Max_cycle;Signal;HPM_P1;HPM_P2
2023/12/11 00:02:16;;;;;;;37.33;6.22;;;;;;;10.25;82.77;99907.53;5077506;28;20055;-63
2023/12/11 00:04:41;;;;;;;31.70;6.15;;;;;;;10.26;82.60;99904.50;5077252;28;20033;-63
2023/12/11 00:07:07;;;;;;;28.90;5.68;;;;;;;10.24;82.38;99905.84;5085223;28;20550;-63
2023/12/11 00:09:32;;;;;;;34.75;6.50;;;;;;;10.25;82.56;99905.59;5084879;28;20024;-63
2023/12/11 00:11:57;;;;;;;38.30;6.63;;;;;;;10.23;82.71;99902.25;5087647;28;20088;-63
2023/12/11 00:14:23;;;;;;;31.85;6.35;;;;;;;10.25;82.30;99904.75;5077117;28;20440;-63
2023/12/11 00:16:51;;;;;;;35.80;6.20;;;;;;;10.22;82.28;99906.13;5084044;28;20032;-64
2023/12/11 00:19:16;;;;;;;37.83;6.40;;;;;;;10.23;82.39;99904.19;5081899;28;20032;-63
2023/12/11 00:21:42;;;;;;;32.85;6.25;;;;;;;10.22;82.50;99906.13;5074085;28;20565;-63
2023/12/11 00:24:07;;;;;;;33.33;6.53;;;;;;;10.21;82.51;99898.06;5083500;28;20043;-63
2023/12/11 00:26:33;;;;;;;42.38;7.07;;;;;;;10.20;82.39;99899.19;5083979;28;20035;-64
2023/12/11 00:28:58;;;;;;;34.75;6.15;;;;;;;10.18;82.35;99898.59;5088047;28;20040;-64
2023/12/11 00:31:23;;;;;;;35.25;6.32;;;;;;;10.19;82.58;99891.97;5091272;28;20020;-64
2023/12/11 00:33:49;;;;;;;39.92;7.32;;;;;;;10.17;82.36;99896.94;5087091;28;20020;-63
2023/12/11 00:36:14;;;;;;;31.77;6.28;;;;;;;10.17;82.07;99885.84;5072586;28;20041;-63
2023/12/11 00:38:41;;;;;;;35.70;6.35;;;;;;;10.17;82.12;99888.63;5079594;28;20098;-64
2023/12/11 00:54:33;;;;;;;40.30;6.95;;;;;;;10.19;82.39;99883.66;5086109;28;20039;-64
2023/12/11 00:56:58;;;;;;;33.65;6.97;;;;;;;10.18;82.43;99879.19;5071990;28;20033;-64
2023/12/11 00:59:24;;;;;;;35.05;6.55;;;;;;;10.20;82.45;99882.53;5077609;28;20032;-63
2023/12/11 01:01:49;;;;;;;38.78;6.25;;;;;;;10.21;82.70;99878.66;5087255;28;20103;-63
2023/12/11 01:04:14;;;;;;;34.00;6.55;;;;;;;10.22;82.65;99870.06;5082780;28;20063;-64
2023/12/11 01:06:41;;;;;;;28.25;6.10;;;;;;;10.23;82.67;99871.72;5090256;28;20039;-64
2023/12/11 01:09:09;;;;;;;37.88;7.70;;;;;;;10.22;82.45;99875.63;5082665;28;20033;-63
2023/12/11 01:11:34;;;;;;;29.67;6.53;;;;;;;10.23;82.59;99868.97;5078947;28;20111;-64
2023/12/11 01:14:02;;;;;;;42.10;6.88;;;;;;;10.19;82.25;99858.69;5090315;28;20028;-64
2023/12/11 01:16:28;;;;;;;37.97;6.65;;;;;;;10.22;82.44;99858.16;5088464;28;20036;-64
2023/12/11 01:18:56;;;;;;;35.90;7.22;;;;;;;10.21;82.65;99856.47;5076860;28;20027;-63
2023/12/11 01:21:21;;;;;;;36.38;7.00;;;;;;;10.19;82.55;99853.16;5084394;28;20044;-64
2023/12/11 01:23:46;;;;;;;35.30;6.78;;;;;;;10.19;82.55;99855.91;5086143;28;20035;-63
2023/12/11 01:26:12;;;;;;;32.95;5.68;;;;;;;10.19;82.43;99848.44;5080485;28;20020;-63
2023/12/11 01:28:44;;;;;;;32.78;6.05;;;;;;;10.22;82.66;99860.94;5082983;28;20144;-64
2023/12/11 01:31:12;;;;;;;39.50;6.35;;;;;;;10.23;82.60;99837.63;5073674;28;20039;-64
2023/12/11 01:33:37;;;;;;;39.47;6.25;;;;;;;10.23;82.38;99846.78;5074119;28;20384;-64
2023/12/11 01:36:03;;;;;;;32.63;6.32;;;;;;;10.22;82.19;99834.03;5086562;28;20040;-64
2023/12/11 01:38:28;;;;;;;32.15;6.43;;;;;;;10.21;81.93;99840.66;5088456;28;20394;-64
2023/12/11 01:40:54;;;;;;;34.90;6.07;;;;;;;10.20;82.00;99839.00;5087995;28;20571;-64
2023/12/11 01:43:22;;;;;;;39.60;6.55;;;;;;;10.18;82.11;99829.28;5088578;28;20493;-63
2023/12/11 01:46:04;;;;;;;35.17;6.40;;;;;;;10.19;82.10;99830.97;5079551;28;20104;-64
2023/12/11 01:48:33;;;;;;;36.88;6.28;;;;;;;10.21;81.81;99839.81;5084305;28;20032;-64
2023/12/11 01:50:59;;;;;;;35.53;6.82;;;;;;;10.22;81.68;99830.41;5078981;28;20432;-63
2023/12/11 01:53:27;;;;;;;31.83;5.88;;;;;;;10.24;81.81;99822.63;5089399;28;20071;-63
2023/12/11 01:55:52;;;;;;;38.17;6.85;;;;;;;10.25;81.52;99821.56;5080295;28;20028;-63
2023/12/11 01:58:19;;;;;;;35.17;5.95;;;;;;;10.25;81.39;99813.22;5071984;28;20078;-64
2023/12/11 02:00:45;;;;;;;26.58;5.22;;;;;;;10.27;81.58;99805.47;5091520;28;20020;-64
2023/12/11 02:03:10;;;;;;;37.05;5.95;;;;;;;10.27;81.37;99811.03;5088649;28;20032;-63
2023/12/11 02:05:36;;;;;;;35.70;6.05;;;;;;;10.28;81.44;99801.59;5073094;28;20130;-64
2023/12/11 02:08:02;;;;;;;33.67;6.50;;;;;;;10.32;81.39;99794.38;5084519;28;20070;-63
2023/12/11 02:10:27;;;;;;;32.65;6.65;;;;;;;10.31;81.17;99801.88;5088534;28;20490;-64
2023/12/11 02:12:53;;;;;;;27.73;5.55;;;;;;;10.33;81.13;99790.50;5092846;28;20027;-64
2023/12/11 02:15:44;;;;;;;34.05;5.75;;;;;;;10.36;81.50;99798.25;5087116;28;20025;-63
2023/12/11 02:18:11;;;;;;;31.50;5.22;;;;;;;10.34;81.01;99796.91;5090101;28;20480;-64
2023/12/11 02:20:37;;;;;;;39.25;6.47;;;;;;;10.32;80.86;99799.94;5082619;28;20108;-63
2023/12/11 02:23:04;;;;;;;32.97;6.60;;;;;;;10.31;80.71;99796.31;5092444;28;20032;-64
2023/12/11 02:25:33;;;;;;;35.05;6.28;;;;;;;10.28;80.52;99804.38;5083178;28;20550;-64
2023/12/11 02:27:58;;;;;;;35.38;5.82;;;;;;;10.28;80.76;99784.97;5072436;28;20029;-64
2023/12/11 02:30:24;;;;;;;30.27;6.38;;;;;;;10.29;80.98;99790.22;5078942;28;20027;-64
2023/12/11 02:32:52;;;;;;;27.73;5.93;;;;;;;10.30;80.93;99789.13;5092977;28;20034;-64
2023/12/11 02:35:18;;;;;;;32.80;5.47;;;;;;;10.32;81.07;99780.50;5086060;28;20067;-65
2023/12/11 02:37:43;;;;;;;31.95;6.13;;;;;;;10.32;81.14;99773.03;5093104;28;20556;-64
2023/12/11 02:40:09;;;;;;;24.90;4.72;;;;;;;10.35;80.79;99768.88;5086045;28;20516;-64
2023/12/11 02:42:34;;;;;;;32.17;5.35;;;;;;;10.38;80.93;99770.28;5072635;28;20455;-63
2023/12/11 02:44:59;;;;;;;32.38;6.38;;;;;;;10.37;80.92;99772.19;5073871;28;20115;-63
2023/12/11 02:47:24;;;;;;;28.40;5.50;;;;;;;10.35;80.78;99752.22;5079940;28;20062;-64
2023/12/11 02:49:52;;;;;;;30.77;5.97;;;;;;;10.36;80.75;99759.44;5083242;28;20078;-63
2023/12/11 02:52:18;;;;;;;32.33;5.63;;;;;;;10.35;80.94;99756.94;5071997;28;20038;-64
2023/12/11 02:54:49;;;;;;;25.85;5.03;;;;;;;10.35;80.59;99756.94;5078048;28;20031;-63
2023/12/11 02:57:14;;;;;;;29.58;5.93;;;;;;;10.36;80.60;99744.75;5085941;28;20459;-63
2023/12/11 02:59:39;;;;;;;28.85;4.85;;;;;;;10.34;80.63;99738.66;5084936;28;20035;-63
2023/12/11 03:02:08;;;;;;;30.42;5.35;;;;;;;10.34;80.71;99736.72;5083105;28;20034;-63
2023/12/11 03:04:33;;;;;;;22.95;4.78;;;;;;;10.35;80.82;99735.59;5092772;28;20650;-63
2023/12/11 03:06:58;;;;;;;28.40;5.40;;;;;;;10.35;81.02;99724.50;5079811;28;20027;-63
2023/12/11 03:09:26;;;;;;;30.02;5.00;;;;;;;10.36;80.89;99722.53;5075945;28;20085;-63
2023/12/11 03:11:54;;;;;;;24.42;5.38;;;;;;;10.35;80.79;99718.94;5088844;28;20838;-63
2023/12/11 03:14:19;;;;;;;30.63;4.95;;;;;;;10.31;81.08;99715.91;5090596;28;20034;-63
2023/12/11 03:16:48;;;;;;;25.73;4.95;;;;;;;10.31;81.24;99712.28;5080343;28;20095;-63
2023/12/11 03:19:16;;;;;;;26.95;5.00;;;;;;;10.31;81.09;99715.91;5091314;28;20047;-63
2023/12/11 03:21:42;;;;;;;21.67;5.05;;;;;;;10.32;80.97;99706.47;5087167;28;20028;-63
2023/12/11 03:24:10;;;;;;;26.88;5.70;;;;;;;10.34;81.20;99702.59;5071505;28;20032;-63
2023/12/11 03:26:35;;;;;;;29.20;5.93;;;;;;;10.32;80.61;99698.13;5073097;28;20036;-64
2023/12/11 03:29:01;;;;;;;36.83;5.90;;;;;;;10.30;80.42;99716.19;5088907;28;20085;-64
2023/12/11 03:31:26;;;;;;;32.95;5.28;;;;;;;10.29;80.62;99711.72;5077696;28;20023;-64
2023/12/11 03:33:51;;;;;;;33.60;5.75;;;;;;;10.30;80.81;99711.47;5091434;28;20034;-62
2023/12/11 03:36:17;;;;;;;29.15;5.75;;;;;;;10.28;80.43;99707.31;5091813;28;20028;-64
2023/12/11 03:38:42;;;;;;;27.00;5.22;;;;;;;10.28;81.22;99712.84;5073793;28;20128;-63
2023/12/11 03:41:08;;;;;;;30.20;5.05;;;;;;;10.27;80.34;99700.94;5072214;28;20036;-63
2023/12/11 03:43:34;;;;;;;21.15;3.95;;;;;;;10.27;80.27;99705.66;5083885;28;20013;-64
2023/12/11 03:46:00;;;;;;;26.23;5.40;;;;;;;10.27;80.40;99712.03;5074512;28;20524;-64
2023/12/11 03:48:25;;;;;;;22.23;4.88;;;;;;;10.28;80.65;99713.69;5088063;28;20111;-64
2023/12/11 03:50:50;;;;;;;21.60;4.22;;;;;;;10.28;80.59;99712.84;5090574;28;20550;-64
2023/12/11 03:53:16;;;;;;;22.50;4.82;;;;;;;10.31;80.70;99706.75;5086496;28;20028;-63
2023/12/11 03:55:41;;;;;;;24.65;4.13;;;;;;;10.32;80.75;99713.94;5076636;28;20036;-63
2023/12/11 03:58:06;;;;;;;19.85;3.65;;;;;;;10.27;80.67;99705.66;5085126;28;20494;-64
2023/12/11 04:00:32;;;;;;;18.98;3.95;;;;;;;10.30;80.73;99699.53;5089756;28;20028;-64
2023/12/11 04:02:57;;;;;;;17.52;4.45;;;;;;;10.30;80.70;99705.91;5083181;28;20032;-64
2023/12/11 04:05:23;;;;;;;22.17;4.18;;;;;;;10.32;80.52;99700.91;5090881;28;20129;-64
2023/12/11 04:07:48;;;;;;;26.58;4.53;;;;;;;10.30;80.71;99711.47;5085385;28;20036;-64
2023/12/11 04:10:13;;;;;;;15.68;3.92;;;;;;;10.31;80.91;99703.97;5090301;28;20024;-64
2023/12/11 04:12:41;;;;;;;24.35;4.53;;;;;;;10.28;81.36;99712.84;5081868;28;20107;-64
2023/12/11 04:15:07;;;;;;;21.85;4.13;;;;;;;10.30;81.54;99705.09;5091585;28;20016;-63
2023/12/11 04:17:32;;;;;;;16.92;3.92;;;;;;;10.29;81.79;99714.50;5079489;28;20036;-64
2023/12/11 04:19:58;;;;;;;25.00;4.97;;;;;;;10.28;82.31;99704.53;5087820;28;20051;-64
2023/12/11 04:22:23;;;;;;;25.30;4.13;;;;;;;10.30;82.91;99713.41;5088503;28;20113;-64
2023/12/11 04:24:49;;;;;;;22.90;4.35;;;;;;;10.31;83.13;99712.28;5085345;28;20051;-63
2023/12/11 04:27:14;;;;;;;26.98;4.85;;;;;;;10.28;83.54;99696.22;5084667;28;20028;-63
2023/12/11 04:29:40;;;;;;;23.48;4.43;;;;;;;10.25;83.84;99697.59;5081004;28;20031;-63
2023/12/11 04:32:05;;;;;;;23.90;4.57;;;;;;;10.27;83.90;99689.00;5082469;28;20482;-63
2023/12/11 04:34:30;;;;;;;25.48;4.75;;;;;;;10.27;83.86;99683.47;5077797;28;20154;-63
2023/12/11 04:36:56;;;;;;;23.30;4.53;;;;;;;10.25;84.23;99682.91;5070404;28;20040;-63
2023/12/11 04:39:21;;;;;;;26.02;4.85;;;;;;;10.26;84.32;99681.81;5088844;28;20032;-63
2023/12/11 04:41:46;;;;;;;22.42;4.55;;;;;;;10.27;84.09;99686.22;5085871;28;20032;-63
2023/12/11 04:44:12;;;;;;;28.60;5.10;;;;;;;10.26;84.21;99671.53;5078905;28;20039;-63
2023/12/11 04:46:37;;;;;;;28.95;5.25;;;;;;;10.25;84.26;99675.41;5075654;28;20024;-63
2023/12/11 04:49:02;;;;;;;27.33;5.25;;;;;;;10.18;84.45;99669.31;5082493;28;20066;-63
2023/12/11 04:51:28;;;;;;;28.67;4.82;;;;;;;10.18;84.56;99679.53;5071689;28;20555;-63
2023/12/11 04:53:53;;;;;;;22.67;5.70;;;;;;;10.14;84.49;99678.44;5074319;28;20099;-64
2023/12/11 04:56:18;;;;;;;23.05;4.28;;;;;;;10.14;84.49;99676.53;5090022;28;20028;-63
2023/12/11 04:58:44;;;;;;;25.15;4.40;;;;;;;10.15;84.54;99674.56;5074653;28;20020;-63
2023/12/11 05:01:10;;;;;;;25.67;5.28;;;;;;;10.12;84.86;99680.66;5074194;28;20199;-63
2023/12/11 05:03:35;;;;;;;26.02;5.05;;;;;;;10.14;85.01;99673.75;5077716;28;20032;-63
2023/12/11 05:06:00;;;;;;;21.02;4.60;;;;;;;10.16;85.50;99670.69;5091413;28;20063;-63
2023/12/11 05:08:26;;;;;;;18.40;4.25;;;;;;;10.15;85.52;99672.63;5081058;28;20040;-63
2023/12/11 05:10:51;;;;;;;26.23;4.72;;;;;;;10.17;85.61;99677.88;5074723;28;20031;-63
2023/12/11 05:13:17;;;;;;;25.60;4.70;;;;;;;10.19;85.63;99681.22;5077316;28;20447;-63
2023/12/11 05:15:44;;;;;;;19.10;4.57;;;;;;;10.19;85.69;99681.22;5086716;28;20416;-64
2023/12/11 05:18:10;;;;;;;26.13;5.30;;;;;;;10.16;85.94;99688.16;5077916;28;20024;-63
2023/12/11 05:20:35;;;;;;;27.20;4.90;;;;;;;10.17;85.85;99675.09;5082048;28;20078;-63
2023/12/11 05:23:00;;;;;;;29.95;5.18;;;;;;;10.17;85.72;99675.09;5074106;28;20095;-63
2023/12/11 05:25:26;;;;;;;22.00;4.15;;;;;;;10.17;85.67;99684.25;5074736;28;20115;-63
2023/12/11 05:27:51;;;;;;;25.80;5.03;;;;;;;10.14;85.95;99687.59;5073522;28;20039;-63
2023/12/11 05:30:16;;;;;;;23.35;4.70;;;;;;;10.13;85.90;99682.31;5075343;28;20039;-63
2023/12/11 05:32:43;;;;;;;24.00;5.03;;;;;;;10.16;85.81;99681.78;5089670;28;20020;-63
2023/12/11 05:35:09;;;;;;;29.30;5.15;;;;;;;10.14;85.62;99678.44;5082428;28;20483;-63
2023/12/11 05:37:34;;;;;;;27.30;4.72;;;;;;;10.14;85.67;99683.97;5083213;28;20035;-63
2023/12/11 05:39:59;;;;;;;27.85;5.40;;;;;;;10.13;85.60;99680.38;5093704;28;20470;-64
2023/12/11 05:42:25;;;;;;;25.23;4.72;;;;;;;10.11;85.84;99685.38;5085241;28;20039;-63
2023/12/11 05:44:50;;;;;;;22.25;4.78;;;;;;;10.11;85.29;99673.47;5073877;28;20063;-63
2023/12/11 05:47:15;;;;;;;22.27;5.15;;;;;;;10.09;85.37;99671.78;5074201;28;20036;-63
2023/12/11 05:49:41;;;;;;;27.67;4.97;;;;;;;10.09;85.28;99680.09;5073989;28;20031;-63
2023/12/11 05:52:06;;;;;;;26.17;4.72;;;;;;;10.10;85.68;99667.09;5083891;28;20036;-63
2023/12/11 05:54:31;;;;;;;27.75;5.22;;;;;;;10.14;85.00;99672.88;5093440;28;20032;-63
2023/12/11 05:56:57;;;;;;;23.80;4.85;;;;;;;10.17;84.76;99667.63;5076586;28;20024;-63
2023/12/11 05:59:22;;;;;;;26.77;5.18;;;;;;;10.17;84.81;99675.09;5080971;28;20053;-63
2023/12/11 06:01:48;;;;;;;24.80;4.40;;;;;;;10.18;84.45;99674.00;5080028;28;20032;-63
2023/12/11 06:04:13;;;;;;;20.23;4.50;;;;;;;10.16;83.98;99668.75;5088909;28;20032;-63
2023/12/11 06:06:38;;;;;;;22.33;4.35;;;;;;;10.17;84.26;99669.56;5077763;28;20033;-63
2023/12/11 06:09:04;;;;;;;23.10;4.90;;;;;;;10.14;84.55;99665.44;5092298;28;20035;-63
2023/12/11 06:11:29;;;;;;;24.92;4.40;;;;;;;10.15;84.49;99667.09;5074284;28;20032;-63
2023/12/11 06:13:55;;;;;;;23.48;5.03;;;;;;;10.14;84.15;99664.56;5093484;28;20016;-63
2023/12/11 06:16:20;;;;;;;23.73;4.80;;;;;;;10.11;84.55;99665.97;5078557;28;20155;-63
2023/12/11 06:18:46;;;;;;;25.63;4.85;;;;;;;10.12;84.75;99684.28;5081446;28;20024;-63
2023/12/11 06:21:18;;;;;;;25.90;4.88;;;;;;;10.11;85.43;99679.00;5080875;28;20577;-63
2023/12/11 06:23:43;;;;;;;34.00;5.32;;;;;;;10.13;85.00;99687.88;5073308;28;20127;-63
2023/12/11 06:26:08;;;;;;;23.00;4.60;;;;;;;10.14;85.03;99681.22;5078342;28;20169;-63
2023/12/11 06:28:34;;;;;;;27.17;5.20;;;;;;;10.09;85.28;99673.72;5091587;28;20067;-63
2023/12/11 06:30:59;;;;;;;23.00;4.97;;;;;;;10.11;85.24;99681.78;5072953;28;20121;-63
2023/12/11 06:33:24;;;;;;;27.55;5.07;;;;;;;10.11;84.61;99677.06;5079729;28;20028;-63
2023/12/11 06:35:50;;;;;;;30.55;4.97;;;;;;;10.12;84.92;99672.34;5083549;28;20047;-63
2023/12/11 06:38:15;;;;;;;27.75;4.97;;;;;;;10.12;84.94;99680.66;5087009;28;20056;-63
2023/12/11 06:40:41;;;;;;;25.85;5.13;;;;;;;10.06;85.09;99685.38;5091829;28;20433;-63
2023/12/11 06:43:06;;;;;;;22.77;4.47;;;;;;;10.08;84.64;99678.44;5090720;28;20107;-63
2023/12/11 06:45:31;;;;;;;25.08;4.57;;;;;;;10.08;84.70;99677.63;5091857;28;20031;-63
2023/12/11 06:47:56;;;;;;;28.02;5.15;;;;;;;10.03;84.74;99675.69;5091150;28;20028;-64
2023/12/11 06:50:22;;;;;;;22.40;4.28;;;;;;;10.08;84.75;99681.22;5088072;28;20031;-63
2023/12/11 06:52:47;;;;;;;25.73;4.55;;;;;;;10.08;84.29;99697.03;5089801;28;20109;-63
2023/12/11 06:55:13;;;;;;;24.80;5.13;;;;;;;10.03;84.33;99695.09;5092547;28;20784;-63
2023/12/11 06:57:38;;;;;;;25.63;4.55;;;;;;;10.02;84.24;99698.13;5081185;28;20415;-63
2023/12/11 07:00:05;;;;;;;23.15;5.53;;;;;;;10.01;84.44;99688.97;5082145;28;20464;-61
2023/12/11 07:02:30;;;;;;;29.10;4.57;;;;;;;10.02;83.92;99690.66;5073613;28;20426;-64
2023/12/11 07:04:56;;;;;;;18.85;4.28;;;;;;;10.05;83.71;99698.41;5087776;28;20020;-65
2023/12/11 07:07:22;;;;;;;26.83;5.13;;;;;;;10.06;83.40;99708.41;5084812;28;20028;-65
2023/12/11 07:09:47;;;;;;;22.05;4.30;;;;;;;10.05;83.27;99705.91;5078177;28;20031;-65
2023/12/11 07:12:13;;;;;;;19.27;4.25;;;;;;;10.09;83.02;99699.50;5078072;28;20030;-65
2023/12/11 07:14:38;;;;;;;25.83;4.78;;;;;;;10.07;83.02;99700.91;5089488;28;20125;-64
2023/12/11 07:17:04;;;;;;;26.48;4.30;;;;;;;10.11;82.81;99695.66;5084925;28;20063;-65
2023/12/11 07:19:29;;;;;;;21.17;4.53;;;;;;;10.07;82.16;99701.75;5072840;28;20037;-64
2023/12/11 07:21:54;;;;;;;19.65;4.22;;;;;;;10.07;81.74;99704.53;5071741;28;20471;-64
2023/12/11 07:24:20;;;;;;;19.67;3.65;;;;;;;10.05;81.90;99698.41;5074057;28;20364;-65
2023/12/11 07:26:45;;;;;;;21.63;3.75;;;;;;;10.08;81.65;99719.22;5080598;28;20021;-64
2023/12/11 07:29:10;;;;;;;20.25;3.65;;;;;;;10.10;81.93;99728.09;5079045;28;20111;-64
2023/12/11 07:31:36;;;;;;;22.55;3.72;;;;;;;10.11;82.10;99721.44;5079512;28;20032;-65
2023/12/11 07:34:04;;;;;;;19.95;4.47;;;;;;;10.14;82.22;99747.75;5071201;28;20021;-63
2023/12/11 07:36:33;;;;;;;20.58;4.53;;;;;;;10.12;82.21;99747.22;5087513;28;20024;-63
2023/12/11 07:38:58;;;;;;;22.60;4.22;;;;;;;10.12;82.19;99766.63;5077880;28;20217;-63
2023/12/11 07:41:23;;;;;;;19.80;3.70;;;;;;;10.07;82.40;99759.97;5071950;28;20032;-63
2023/12/11 07:43:49;;;;;;;19.42;3.65;;;;;;;10.06;82.94;99763.84;5087581;28;20032;-63
2023/12/11 07:46:16;;;;;;;22.95;4.38;;;;;;;10.03;83.04;99769.94;5075670;28;20497;-63
2023/12/11 07:48:44;;;;;;;22.23;3.72;;;;;;;10.04;83.22;99768.81;5071393;28;20056;-63
2023/12/11 07:51:20;;;;;;;15.98;3.67;;;;;;;10.05;83.64;99776.03;5071410;28;20028;-63
2023/12/11 07:53:47;;;;;;;18.40;3.75;;;;;;;10.05;83.50;99780.75;5075904;28;20414;-62
2023/12/11 07:56:20;;;;;;;28.27;4.50;;;;;;;10.03;83.73;99782.97;5080567;28;20490;-64
2023/12/11 07:58:46;;;;;;;19.80;3.65;;;;;;;10.05;83.86;99789.91;5078139;28;20032;-63
2023/12/11 08:01:11;;;;;;;17.65;3.90;;;;;;;10.03;83.54;99789.34;5084363;28;20024;-64
2023/12/11 08:03:37;;;;;;;20.73;3.78;;;;;;;10.04;83.90;99791.00;5080728;28;20081;-63
2023/12/11 08:06:02;;;;;;;15.98;3.80;;;;;;;10.08;83.30;99799.59;5082298;28;20024;-64
2023/12/11 08:08:28;;;;;;;17.98;4.13;;;;;;;10.06;83.04;99802.66;5075943;28;20479;-63
2023/12/11 08:10:54;;;;;;;17.80;4.93;;;;;;;10.15;84.56;99805.72;5081349;28;20024;-62
2023/12/11 08:13:19;;;;;;;16.55;3.55;;;;;;;10.17;83.16;99809.03;5079949;28;20533;-65
2023/12/11 08:15:45;;;;;;;16.15;3.85;;;;;;;10.18;82.97;99826.50;5075057;28;20463;-62
2023/12/11 08:18:10;;;;;;;14.60;3.38;;;;;;;10.20;82.36;99819.59;5079637;28;20050;-62
2023/12/11 08:20:36;;;;;;;18.50;3.63;;;;;;;10.21;82.17;99812.09;5074586;28;20030;-62
2023/12/11 08:23:01;;;;;;;13.95;3.65;;;;;;;10.18;82.13;99835.69;5081265;28;20032;-62
2023/12/11 08:25:27;;;;;;;19.30;4.05;;;;;;;10.20;82.08;99824.31;5081913;28;20063;-61
2023/12/11 08:27:55;;;;;;;13.95;2.95;;;;;;;10.18;81.97;99834.81;5072086;28;20388;-65
2023/12/11 08:30:20;;;;;;;16.63;3.78;;;;;;;10.26;82.35;99834.34;5077265;28;20020;-64
2023/12/11 08:32:46;;;;;;;17.10;3.42;;;;;;;10.24;80.96;99840.09;5077284;28;20503;-64
2023/12/11 08:35:11;;;;;;;14.98;3.55;;;;;;;10.23;80.83;99859.81;5077803;28;20095;-65
2023/12/11 08:37:37;;;;;;;15.80;3.15;;;;;;;10.24;80.42;99848.44;5084816;28;20518;-65
2023/12/11 08:40:06;;;;;;;17.55;3.40;;;;;;;10.23;79.73;99848.72;5076895;28;20020;-65
2023/12/11 08:42:32;;;;;;;17.48;3.17;;;;;;;10.19;80.13;99853.16;5072668;28;20028;-65
2023/12/11 08:44:58;;;;;;;14.77;3.47;;;;;;;10.23;79.64;99870.91;5071869;28;20115;-64
2023/12/11 08:47:24;;;;;;;15.60;3.15;;;;;;;10.24;79.95;99873.38;5083379;28;20107;-65
2023/12/11 08:49:49;;;;;;;15.48;3.45;;;;;;;10.23;80.14;99882.81;5080698;28;20383;-65
2023/12/11 08:52:15;;;;;;;15.63;3.75;;;;;;;10.25;80.23;99899.22;5075502;28;20028;-63
2023/12/11 08:54:40;;;;;;;20.23;4.07;;;;;;;10.24;80.67;99890.03;5077615;28;20448;-64
2023/12/11 08:57:05;;;;;;;17.30;3.25;;;;;;;10.20;81.01;99905.56;5086595;28;20036;-64
2023/12/11 08:59:32;;;;;;;23.65;3.83;;;;;;;10.24;81.32;99922.47;5071358;28;20115;-63
2023/12/11 09:01:57;;;;;;;18.98;3.60;;;;;;;10.18;82.33;99931.88;5077393;28;20028;-62
2023/12/11 09:04:22;;;;;;;18.02;3.28;;;;;;;10.22;82.35;99939.41;5081771;28;20608;-62
2023/12/11 09:06:48;;;;;;;16.55;4.00;;;;;;;10.24;83.88;99931.63;5073637;28;20591;-62
2023/12/11 09:09:13;;;;;;;17.52;3.03;;;;;;;10.23;82.82;99948.56;5076280;28;20143;-62
2023/12/11 09:11:39;;;;;;;17.08;3.65;;;;;;;10.19;83.14;99942.72;5077401;28;20083;-63
2023/12/11 09:14:04;;;;;;;14.20;3.85;;;;;;;10.13;83.20;99931.88;5076928;28;20048;-67
2023/12/11 09:16:30;;;;;;;11.52;3.03;;;;;;;10.14;83.23;99944.63;5074018;28;20034;-60
2023/12/11 09:18:58;;;;;;;13.88;3.05;;;;;;;10.13;83.39;99938.25;5076616;28;20020;-65
2023/12/11 09:21:23;;;;;;;14.93;3.30;;;;;;;10.13;83.19;99954.06;5082810;28;20035;-63
2023/12/11 09:23:49;;;;;;;13.13;3.60;;;;;;;10.27;84.26;99960.81;5077894;28;20028;-63
2023/12/11 09:26:14;;;;;;;12.27;2.65;;;;;;;10.20;82.98;99960.19;5072756;28;20055;-65
2023/12/11 09:28:40;;;;;;;13.43;3.35;;;;;;;10.13;82.70;99965.97;5069769;28;20032;-65
2023/12/11 09:31:05;;;;;;;17.83;3.63;;;;;;;10.15;82.96;99974.03;5076208;28;20038;-64
2023/12/11 09:33:31;;;;;;;12.15;3.30;;;;;;;10.19;82.96;99983.47;5074952;28;20032;-64
2023/12/11 09:35:57;;;;;;;14.50;2.70;;;;;;;10.11;81.85;99998.72;5073702;28;20586;-64
2023/12/11 09:38:22;;;;;;;14.65;2.72;;;;;;;10.18;82.53;99996.53;5080867;28;20028;-63
2023/12/11 09:40:48;;;;;;;11.82;3.13;;;;;;;10.15;81.73;100001.78;5076727;28;20028;-63
2023/12/11 09:43:16;;;;;;;13.30;2.55;;;;;;;10.21;82.41;100004.28;5082748;28;20056;-64
2023/12/11 09:45:42;;;;;;;13.25;2.58;;;;;;;10.27;82.05;100000.47;5076437;28;20035;-64
2023/12/11 09:48:08;;;;;;;10.68;2.58;;;;;;;10.28;81.94;100013.22;5076139;28;20078;-63
2023/12/11 09:50:37;;;;;;;10.93;2.58;;;;;;;10.26;81.43;100014.59;5081786;28;20162;-64
2023/12/11 09:53:03;;;;;;;12.73;2.92;;;;;;;10.27;81.32;100022.66;5074855;28;20028;-64
2023/12/11 09:55:29;;;;;;;11.20;2.85;;;;;;;10.38;81.48;100031.03;5072478;28;20110;-64
2023/12/11 09:57:55;;;;;;;11.05;2.88;;;;;;;10.50;81.59;100038.00;5080437;28;20423;-64
2023/12/11 10:00:20;;;;;;;13.23;3.20;;;;;;;10.68;81.74;100033.03;5083038;28;20134;-64
2023/12/11 10:02:50;;;;;;;11.15;2.65;;;;;;;10.83;81.01;100035.84;5072592;28;20044;-64
2023/12/11 10:05:23;;;;;;;11.32;3.13;;;;;;;10.87;80.40;100047.22;5072240;28;20035;-64
2023/12/11 10:07:48;;;;;;;9.25;2.65;;;;;;;10.82;79.98;100048.06;5074457;28;20029;-64
2023/12/11 10:10:27;;;;;;;13.85;3.00;;;;;;;10.79;80.56;100045.84;5073926;28;20151;-64
2023/12/11 10:12:54;;;;;;;13.82;2.90;;;;;;;10.83;80.28;100052.50;5085266;28;20150;-64
2023/12/11 10:15:27;;;;;;;11.82;2.95;;;;;;;10.74;80.08;100057.75;5076427;28;20035;-64
2023/12/11 10:18:04;;;;;;;12.75;3.10;;;;;;;10.73;80.44;100067.19;5082477;28;20033;-64
2023/12/11 10:20:30;;;;;;;10.23;2.55;;;;;;;10.66;80.61;100063.00;5072307;28;20033;-64
2023/12/11 10:22:56;;;;;;;12.70;3.40;;;;;;;10.66;80.96;100063.00;5072988;28;20380;-64
2023/12/11 10:25:29;;;;;;;10.70;2.50;;;;;;;10.65;80.63;100075.19;5086152;28;20044;-65
2023/12/11 10:28:11;;;;;;;13.68;3.33;;;;;;;10.63;80.44;100069.09;5080621;28;20032;-64
2023/12/11 10:31:04;;;;;;;13.50;2.55;;;;;;;10.71;81.15;100083.28;5080994;28;20030;-65
2023/12/11 10:33:30;;;;;;;10.43;2.42;;;;;;;10.65;80.38;100083.53;5074475;28;20037;-66
2023/12/11 10:36:15;;;;;;;11.50;2.45;;;;;;;10.68;80.63;100094.09;5079928;28;20086;-65
2023/12/11 10:38:42;;;;;;;10.00;2.60;;;;;;;10.58;80.17;100100.44;5084019;28;20055;-65
2023/12/11 10:41:09;;;;;;;8.30;1.92;;;;;;;10.49;80.12;100102.06;5082349;28;20078;-64
2023/12/11 10:43:42;;;;;;;8.15;1.95;;;;;;;10.50;80.76;100112.91;5072687;28;20024;-66
2023/12/11 10:46:08;;;;;;;10.48;2.15;;;;;;;10.52;81.06;100112.63;5087004;28;20119;-65
2023/12/11 10:48:34;;;;;;;13.15;2.83;;;;;;;10.57;80.93;100121.81;5083553;28;20078;-64
2023/12/11 10:51:02;;;;;;;12.30;2.22;;;;;;;10.62;81.20;100118.22;5077329;28;20039;-65
2023/12/11 10:53:27;;;;;;;13.23;2.78;;;;;;;10.64;81.04;100123.50;5071360;28;20024;-65
2023/12/11 10:55:55;;;;;;;11.35;2.20;;;;;;;10.68;80.57;100121.84;5073667;28;20042;-64
2023/12/11 10:58:20;;;;;;;13.88;2.45;;;;;;;10.65;80.77;100125.16;5075232;28;20119;-64
2023/12/11 11:00:46;;;;;;;9.70;2.85;;;;;;;10.68;80.88;100139.31;5085168;28;20103;-64
2023/12/11 11:03:13;;;;;;;11.20;2.70;;;;;;;10.67;80.46;100132.13;5079282;28;20111;-63
2023/12/11 11:05:38;;;;;;;10.98;2.67;;;;;;;10.65;80.14;100144.59;5078309;28;20024;-64
2023/12/11 11:08:51;;;;;;;9.82;2.70;;;;;;;10.68;80.46;100138.50;5076426;28;20027;-65
2023/12/11 11:11:24;;;;;;;9.02;2.22;;;;;;;10.59;80.54;100143.75;5012703;28;20449;-64
2023/12/11 11:14:24;;;;;;;11.15;2.58;;;;;;;10.59;81.14;100154.84;5009567;28;20504;-63
2023/12/11 11:16:56;;;;;;;11.88;2.65;;;;;;;10.56;81.29;100158.16;5064806;28;20047;-63
2023/12/11 11:19:22;;;;;;;12.80;2.58;;;;;;;10.56;81.34;100169.25;5077729;28;20112;-66
2023/12/11 11:22:00;;;;;;;8.73;2.15;;;;;;;10.49;82.12;100163.97;5078296;28;20115;-63
2023/12/11 11:24:26;;;;;;;4.55;1.52;;;;;;;10.45;81.30;100179.47;5072110;28;20078;-63
2023/12/11 11:26:51;;;;;;;4.80;1.38;;;;;;;10.26;81.04;100186.56;5076185;28;20464;-65
2023/12/11 11:29:41;;;;;;;3.92;1.27;;;;;;;10.25;81.84;100187.66;5080567;28;20096;-63
2023/12/11 11:32:06;;;;;;;3.97;1.35;;;;;;;10.17;81.60;100196.44;5083472;28;20616;-63
2023/12/11 11:34:41;;;;;;;4.40;1.40;;;;;;;10.09;81.56;100187.50;5081608;28;20040;-64
2023/12/11 11:37:06;;;;;;;5.78;1.65;;;;;;;10.04;81.94;100194.97;5088753;28;20050;-66